createdAt,value
2018-09-14T00:03:25.330Z,16.00
2018-09-14T00:08:29.985Z,16.00
2018-09-14T00:13:34.520Z,15.90
2018-09-14T00:18:39.641Z,15.90
2018-09-14T00:23:44.419Z,15.90
2018-09-14T00:28:48.838Z,15.90
2018-09-14T00:33:53.377Z,15.90
2018-09-14T00:38:57.893Z,16.00
2018-09-14T00:44:03.765Z,15.90
2018-09-14T00:49:08.388Z,16.00
2018-09-14T00:54:12.845Z,15.90
2018-09-14T00:59:17.400Z,15.90
2018-09-14T01:04:22.647Z,16.00
2018-09-14T01:09:29.586Z,15.90
2018-09-14T01:14:34.050Z,15.90
2018-09-14T01:19:38.544Z,16.00
2018-09-14T01:24:43.207Z,16.10
2018-09-14T01:29:47.695Z,16.10
2018-09-14T01:34:52.154Z,16.10
2018-09-14T01:39:57.536Z,16.10
2018-09-14T01:45:02.166Z,16.10
2018-09-14T01:50:07.529Z,16.10
2018-09-14T01:55:12.165Z,16.10
2018-09-14T02:00:16.729Z,16.00
2018-09-14T02:05:21.829Z,15.90
2018-09-14T02:10:26.488Z,15.80
2018-09-14T02:15:31.116Z,15.80
2018-09-14T02:20:35.632Z,15.90
2018-09-14T02:25:40.076Z,16.00
2018-09-14T02:30:44.691Z,16.10
2018-09-14T02:35:49.272Z,16.10
2018-09-14T02:40:53.825Z,16.00
2018-09-14T02:45:58.554Z,15.90
2018-09-14T02:51:03.013Z,15.90
2018-09-14T02:56:07.639Z,15.90
2018-09-14T03:01:12.133Z,16.00
2018-09-14T03:06:17.020Z,16.00
2018-09-14T03:11:21.622Z,15.90
2018-09-14T03:16:26.251Z,16.00
2018-09-14T03:21:30.688Z,16.00
2018-09-14T03:26:35.324Z,15.90
2018-09-14T03:31:39.949Z,15.80
2018-09-14T03:36:44.360Z,15.60
2018-09-14T03:41:49.314Z,15.60
2018-09-14T03:46:53.892Z,15.50
2018-09-14T03:51:58.448Z,15.50
2018-09-14T03:57:05.540Z,15.50
2018-09-14T04:02:09.884Z,15.50
2018-09-14T04:07:14.445Z,15.60
2018-09-14T04:12:19.432Z,15.50
2018-09-14T04:17:24.011Z,15.40
2018-09-14T04:22:28.458Z,15.30
2018-09-14T04:27:32.991Z,15.20
2018-09-14T04:32:37.492Z,15.30
2018-09-14T04:37:41.920Z,15.30
2018-09-14T04:42:46.339Z,15.30
2018-09-14T04:47:50.925Z,15.40
2018-09-14T04:52:55.574Z,15.50
2018-09-14T04:58:00.903Z,15.70
2018-09-14T05:03:06.643Z,15.70
2018-09-14T05:08:11.190Z,15.70
2018-09-14T05:13:15.896Z,15.70
2018-09-14T05:18:21.912Z,15.70
2018-09-14T05:23:29.249Z,15.70
2018-09-14T05:28:34.186Z,15.80
2018-09-14T05:33:38.701Z,15.90
2018-09-14T05:38:46.325Z,15.90
2018-09-14T05:43:50.881Z,16.10
2018-09-14T05:48:55.811Z,16.20
2018-09-14T05:54:00.282Z,16.20
2018-09-14T05:59:05.189Z,16.20
2018-09-14T06:04:09.682Z,16.20
2018-09-14T06:09:14.327Z,16.30
2018-09-14T06:14:18.778Z,16.30
2018-09-14T06:19:23.348Z,16.60
2018-09-14T06:24:27.869Z,16.80
2018-09-14T06:29:32.490Z,16.80
2018-09-14T06:34:37.063Z,16.80
2018-09-14T06:39:42.795Z,16.90
2018-09-14T06:44:47.194Z,17.00
2018-09-14T06:49:51.691Z,17.20
2018-09-14T06:54:56.367Z,17.20
2018-09-14T07:00:01.750Z,17.30
2018-09-14T07:05:07.119Z,17.40
2018-09-14T07:10:11.681Z,17.50
2018-09-14T07:15:16.682Z,17.60
2018-09-14T07:20:21.272Z,17.70
2018-09-14T07:25:26.881Z,17.80
2018-09-14T07:30:31.508Z,17.80
2018-09-14T07:35:36.537Z,17.90
2018-09-14T07:40:41.115Z,17.70
2018-09-14T07:45:45.589Z,17.60
2018-09-14T07:50:51.235Z,18.10
2018-09-14T07:55:55.822Z,18.70
2018-09-14T08:01:00.249Z,19.00
2018-09-14T08:06:05.680Z,19.40
2018-09-14T08:11:10.141Z,20.00
2018-09-14T08:16:15.853Z,20.00
2018-09-14T08:21:20.564Z,20.10
2018-09-14T08:26:24.932Z,19.40
2018-09-14T08:31:29.301Z,18.80
2018-09-14T08:36:34.225Z,19.00
2018-09-14T08:41:39.043Z,19.70
2018-09-14T08:46:43.526Z,19.80
2018-09-14T08:51:47.989Z,20.00
2018-09-14T08:56:52.602Z,19.60
2018-09-14T09:01:57.194Z,20.60
2018-09-14T09:07:01.798Z,21.40
2018-09-14T09:12:06.378Z,21.50
2018-09-14T09:17:11.011Z,21.80
2018-09-14T09:22:15.894Z,21.60
2018-09-14T09:27:20.326Z,22.30
2018-09-14T09:32:25.417Z,22.80
2018-09-14T09:42:12.660Z,22.20
2018-09-14T09:47:23.979Z,22.10
2018-09-14T09:52:29.213Z,21.50
2018-09-14T09:57:34.039Z,21.90
2018-09-14T10:02:43.783Z,22.50
2018-09-14T10:07:49.356Z,22.10
2018-09-14T10:12:54.126Z,21.30
2018-09-14T10:17:58.646Z,22.10
2018-09-14T10:23:03.227Z,22.80
2018-09-14T10:28:07.873Z,23.30
2018-09-14T10:33:13.104Z,22.50
2018-09-14T10:38:18.925Z,22.10
2018-09-14T10:43:23.678Z,22.10
2018-09-14T10:48:28.647Z,23.20
2018-09-14T10:53:34.076Z,23.30
2018-09-14T10:58:44.080Z,24.50
2018-09-14T11:03:48.639Z,24.90
2018-09-14T11:08:52.880Z,24.60
2018-09-14T11:13:58.010Z,25.30
2018-09-14T11:19:02.364Z,25.50
2018-09-14T11:24:07.963Z,27.60
2018-09-14T11:29:13.058Z,28.10
2018-09-14T11:34:17.749Z,27.70
2018-09-14T11:39:24.240Z,28.30
2018-09-14T11:44:28.932Z,28.40
2018-09-14T11:49:33.442Z,28.90
2018-09-14T11:54:37.780Z,30.00
2018-09-14T11:59:42.333Z,29.80
2018-09-14T12:04:46.797Z,29.80
2018-09-14T12:09:52.025Z,29.90
2018-09-14T12:14:57.574Z,29.80
2018-09-14T12:20:02.092Z,28.20
2018-09-14T12:25:07.317Z,27.20
2018-09-14T12:30:11.713Z,27.40
2018-09-14T12:35:16.978Z,26.50
2018-09-14T12:40:21.521Z,29.10
2018-09-14T12:45:27.124Z,30.50
2018-09-14T12:50:31.680Z,29.50
2018-09-14T12:55:37.758Z,27.70
2018-09-14T13:00:42.497Z,26.90
2018-09-14T13:05:46.790Z,27.60
2018-09-14T13:10:51.302Z,26.40
2018-09-14T13:15:56.239Z,24.40
2018-09-14T13:21:00.906Z,24.00
2018-09-14T13:26:05.976Z,24.20
2018-09-14T13:31:11.067Z,24.60
2018-09-14T13:36:16.845Z,24.50
2018-09-14T13:41:21.320Z,25.00
2018-09-14T13:46:25.993Z,24.80
2018-09-14T13:51:30.467Z,24.30
2018-09-14T13:56:35.752Z,23.90
2018-09-14T14:06:57.976Z,24.10
2018-09-14T14:12:05.133Z,23.90
2018-09-14T14:17:10.483Z,23.60
2018-09-14T14:22:15.556Z,23.60
2018-09-14T14:27:20.530Z,23.70
2018-09-14T14:32:25.123Z,24.10
2018-09-14T14:37:29.662Z,24.10
2018-09-14T14:42:35.278Z,23.90
2018-09-14T14:47:39.614Z,24.20
2018-09-14T14:52:44.185Z,25.50
2018-09-14T14:57:49.519Z,26.30
2018-09-14T15:02:54.100Z,24.90
2018-09-14T15:07:59.245Z,23.50
2018-09-14T15:13:04.342Z,23.20
2018-09-14T15:18:08.741Z,23.80
2018-09-14T15:23:14.315Z,24.40
2018-09-14T15:28:20.752Z,25.50
2018-09-14T15:33:25.390Z,25.50
2018-09-14T15:38:30.067Z,25.50
2018-09-14T15:43:35.214Z,27.40
2018-09-14T15:48:39.888Z,28.00
2018-09-14T15:53:44.631Z,27.30
2018-09-14T15:58:49.867Z,26.30
2018-09-14T16:03:54.893Z,24.90
2018-09-14T16:08:59.563Z,24.10
2018-09-14T16:14:04.886Z,23.70
2018-09-14T16:19:09.291Z,23.50
2018-09-14T16:24:16.179Z,24.80
2018-09-14T16:29:20.775Z,25.60
2018-09-14T16:34:25.381Z,24.90
2018-09-14T16:39:30.623Z,24.00
2018-09-14T16:44:35.362Z,23.80
2018-09-14T16:49:43.035Z,23.40
2018-09-14T16:55:00.640Z,22.90
2018-09-14T17:00:09.028Z,22.50
2018-09-14T17:05:13.600Z,22.40
2018-09-14T17:10:18.221Z,22.10
2018-09-14T17:15:22.902Z,21.80
2018-09-14T17:20:28.727Z,21.60
2018-09-14T17:25:33.314Z,21.40
2018-09-14T17:30:37.863Z,21.20
2018-09-14T17:35:42.545Z,21.00
2018-09-14T17:40:47.377Z,20.80
2018-09-14T17:45:51.879Z,20.60
2018-09-14T17:50:56.761Z,20.40
2018-09-14T17:56:01.299Z,20.20
2018-09-14T18:01:06.238Z,19.90
2018-09-14T18:06:10.824Z,19.80
2018-09-14T18:11:15.875Z,19.60
2018-09-14T18:16:20.662Z,19.40
2018-09-14T18:21:25.897Z,19.30
2018-09-14T18:26:31.047Z,19.20
2018-09-14T18:37:06.598Z,19.00
2018-09-14T18:42:57.848Z,18.90
2018-09-14T18:48:07.019Z,18.80
2018-09-14T18:53:11.874Z,18.80
2018-09-14T18:58:17.534Z,18.80
2018-09-14T19:03:22.277Z,18.90
2018-09-14T19:08:27.421Z,18.90
2018-09-14T19:13:32.115Z,18.90
2018-09-14T19:18:36.737Z,19.00
2018-09-14T19:23:41.338Z,19.00
2018-09-14T19:28:46.590Z,18.90
2018-09-14T19:33:51.550Z,18.90
2018-09-14T19:38:56.643Z,18.80
2018-09-14T19:44:01.627Z,18.90
2018-09-14T19:49:10.710Z,18.90
2018-09-14T19:54:16.975Z,18.80
2018-09-14T19:59:22.325Z,18.70
2018-09-14T20:04:27.136Z,18.60
2018-09-14T20:20:45.997Z,18.20
2018-09-14T20:25:54.032Z,18.10
2018-09-14T20:30:58.779Z,18.00
2018-09-14T20:36:03.415Z,18.00
2018-09-14T20:41:08.608Z,18.00
2018-09-14T20:46:13.849Z,18.00
2018-09-14T20:51:19.594Z,17.90
2018-09-14T20:56:25.804Z,17.90
2018-09-14T21:01:34.424Z,17.80
2018-09-14T21:06:39.481Z,17.80
2018-09-14T21:11:49.556Z,17.80
2018-09-14T21:16:54.800Z,17.80
2018-09-14T21:22:00.704Z,17.80
2018-09-14T21:27:05.415Z,17.70
2018-09-14T21:32:10.788Z,17.60
2018-09-14T21:37:15.398Z,17.50
2018-09-14T21:42:19.986Z,17.30
2018-09-14T21:47:24.559Z,17.30
2018-09-14T21:52:29.601Z,17.20
2018-09-14T21:57:34.220Z,17.00
2018-09-14T22:02:38.821Z,16.90
2018-09-14T22:07:44.127Z,16.90
2018-09-14T22:12:49.053Z,16.70
2018-09-14T22:17:54.138Z,16.60
2018-09-14T22:22:58.827Z,16.60
2018-09-14T22:28:03.475Z,16.50
2018-09-14T22:33:08.193Z,16.60
2018-09-14T22:38:12.874Z,16.70
2018-09-14T22:43:17.859Z,16.70
2018-09-14T22:48:22.587Z,16.60
2018-09-14T22:53:27.799Z,16.40
2018-09-14T22:58:32.163Z,16.20
2018-09-14T23:03:37.327Z,16.10
2018-09-14T23:08:41.962Z,16.30
2018-09-14T23:13:46.898Z,16.30
2018-09-14T23:18:51.560Z,16.40
2018-09-14T23:23:56.282Z,16.50
2018-09-14T23:29:01.588Z,16.60
2018-09-14T23:34:06.255Z,16.70
2018-09-14T23:39:11.866Z,16.80
2018-09-14T23:44:16.288Z,16.90
2018-09-14T23:49:20.711Z,17.00
2018-09-14T23:54:25.306Z,17.10
2018-09-14T23:59:30.453Z,17.10
